Time;durP1;ratioP1;P1;durP2;ratioP2;P2;SDS_P1;SDS_P2;PMS_P1;PMS_P2;Temp;Humidity;BMP_temperature;BMP_pressure;BME280_temperature;BME280_humidity;BME280_pressure;Samples;Min_cycle;Max_cycle;Signal;HPM_P1;HPM_P2
2021/12/31 00:01:58;;;;;;;6.05;4.22;;;13.80;96.00;;;;;;5000652;28;20030;-72
2021/12/31 00:04:24;;;;;;;5.47;4.25;;;13.80;96.10;;;;;;5000724;28;20036;-72
2021/12/31 00:06:50;;;;;;;6.25;4.38;;;13.80;96.00;;;;;;5002146;28;20386;-74
2021/12/31 00:09:15;;;;;;;5.05;3.72;;;13.90;96.10;;;;;;5003647;28;20409;-72
2021/12/31 00:11:41;;;;;;;6.70;4.47;;;13.90;95.90;;;;;;4985488;28;20038;-72
2021/12/31 00:14:07;;;;;;;5.13;4.32;;;13.90;95.80;;;;;;5002640;28;20030;-72
2021/12/31 00:16:33;;;;;;;5.65;4.85;;;13.90;95.90;;;;;;5002090;28;20108;-72
2021/12/31 00:18:59;;;;;;;5.15;4.60;;;13.90;95.80;;;;;;5004169;28;20121;-72
2021/12/31 00:21:24;;;;;;;6.72;4.70;;;13.90;95.60;;;;;;5001087;28;20040;-72
2021/12/31 00:23:50;;;;;;;8.40;5.88;;;13.90;95.60;;;;;;5001583;28;20099;-72
2021/12/31 00:26:16;;;;;;;6.80;5.60;;;13.90;96.00;;;;;;5001036;28;20045;-72
2021/12/31 00:28:42;;;;;;;6.43;4.93;;;13.90;95.90;;;;;;5000929;28;20037;-72
2021/12/31 00:31:07;;;;;;;6.97;4.97;;;13.80;95.90;;;;;;5000140;28;20053;-72
2021/12/31 00:33:33;;;;;;;8.57;5.57;;;13.80;96.00;;;;;;5002677;28;20038;-72
2021/12/31 00:35:59;;;;;;;6.88;5.10;;;13.80;95.80;;;;;;5000322;28;20065;-72
2021/12/31 00:38:25;;;;;;;6.82;5.43;;;13.80;95.90;;;;;;4985403;28;20097;-72
2021/12/31 00:40:50;;;;;;;9.50;6.13;;;13.80;96.00;;;;;;4983352;28;20064;-72
2021/12/31 00:43:17;;;;;;;7.78;5.60;;;13.80;96.10;;;;;;4999002;28;20148;-72
2021/12/31 00:45:43;;;;;;;7.20;6.00;;;13.80;96.20;;;;;;4999615;28;20037;-73
2021/12/31 00:48:11;;;;;;;7.68;5.55;;;13.80;96.30;;;;;;5001925;28;20753;-73
2021/12/31 00:50:37;;;;;;;8.68;6.07;;;13.80;96.40;;;;;;5000255;28;20394;-74
2021/12/31 00:53:04;;;;;;;8.93;6.20;;;13.80;96.70;;;;;;4999005;28;20615;-74
2021/12/31 00:55:30;;;;;;;7.47;5.18;;;13.80;96.60;;;;;;5000921;28;20026;-77
2021/12/31 00:57:56;;;;;;;8.90;5.75;;;13.80;96.40;;;;;;5000212;28;20033;-73
2021/12/31 01:00:22;;;;;;;9.15;5.85;;;13.80;96.40;;;;;;4999117;28;20076;-72
2021/12/31 01:02:48;;;;;;;7.40;5.20;;;13.80;96.40;;;;;;4998198;28;20141;-73
2021/12/31 01:05:15;;;;;;;6.63;5.07;;;13.80;96.40;;;;;;5000294;28;20575;-72
2021/12/31 01:07:42;;;;;;;7.80;6.10;;;13.80;96.40;;;;;;5000447;28;20496;-72
2021/12/31 01:10:12;;;;;;;6.30;5.03;;;13.90;96.30;;;;;;4999090;28;20041;-72
2021/12/31 01:12:37;;;;;;;8.88;5.10;;;13.80;96.20;;;;;;4998173;28;20112;-72
2021/12/31 01:15:08;;;;;;;7.97;4.97;;;13.90;96.20;;;;;;4998067;28;20147;-74
2021/12/31 01:20:07;;;;;;;8.80;5.43;;;13.90;96.10;;;;;;4999083;28;20037;-72
2021/12/31 01:22:33;;;;;;;8.35;5.30;;;13.90;96.10;;;;;;4998077;28;20167;-72
2021/12/31 01:25:00;;;;;;;6.30;5.00;;;13.90;96.30;;;;;;4981642;28;20064;-72
2021/12/31 01:27:26;;;;;;;9.70;5.70;;;13.80;96.30;;;;;;4998540;28;20030;-72
2021/12/31 01:29:52;;;;;;;9.30;5.88;;;13.90;96.40;;;;;;5001021;28;20108;-72
2021/12/31 01:32:18;;;;;;;6.53;4.35;;;13.80;96.40;;;;;;4998712;28;20034;-71
2021/12/31 01:34:44;;;;;;;6.20;4.88;;;13.90;96.50;;;;;;4996851;28;20022;-72
2021/12/31 01:37:10;;;;;;;8.07;5.07;;;13.90;96.40;;;;;;4998701;28;20442;-73
2021/12/31 01:39:37;;;;;;;7.93;5.03;;;13.90;96.50;;;;;;4998826;28;20022;-73
2021/12/31 01:42:06;;;;;;;7.10;5.10;;;13.90;96.50;;;;;;4981221;28;20581;-72
2021/12/31 01:44:39;;;;;;;6.20;5.03;;;13.90;96.40;;;;;;5001561;28;20038;-72
2021/12/31 01:47:09;;;;;;;5.90;5.28;;;13.90;96.40;;;;;;4981321;28;20121;-72
2021/12/31 01:49:39;;;;;;;7.88;5.15;;;13.90;96.20;;;;;;4998441;28;20799;-72
2021/12/31 01:52:06;;;;;;;5.70;4.28;;;13.90;96.40;;;;;;4997691;28;20026;-73
2021/12/31 01:54:34;;;;;;;7.25;5.10;;;13.90;96.30;;;;;;4999784;28;20134;-71
2021/12/31 01:57:02;;;;;;;6.05;4.80;;;13.90;96.10;;;;;;5006287;28;20388;-71
2021/12/31 01:59:28;;;;;;;5.57;4.70;;;13.90;96.10;;;;;;5003452;28;20068;-71
2021/12/31 02:01:55;;;;;;;7.40;5.82;;;13.90;96.00;;;;;;5004273;28;20034;-71
2021/12/31 02:04:21;;;;;;;7.65;5.63;;;13.90;96.00;;;;;;5004975;28;20069;-71
2021/12/31 02:06:47;;;;;;;6.95;5.15;;;13.90;96.00;;;;;;5003677;28;20486;-71
2021/12/31 02:09:13;;;;;;;7.82;5.90;;;13.90;95.90;;;;;;4983797;28;20031;-71
2021/12/31 02:11:40;;;;;;;8.68;6.10;;;13.90;95.80;;;;;;5003022;28;20037;-71
2021/12/31 02:14:08;;;;;;;9.85;7.55;;;13.90;95.90;;;;;;5003415;28;20614;-71
2021/12/31 02:16:34;;;;;;;10.05;7.22;;;13.90;95.90;;;;;;5001949;28;20044;-71
2021/12/31 02:19:11;;;;;;;10.00;7.75;;;13.90;95.90;;;;;;5004937;28;20750;-71
2021/12/31 02:21:37;;;;;;;9.65;7.43;;;13.90;95.90;;;;;;4999477;28;20041;-71
2021/12/31 02:24:06;;;;;;;9.52;7.20;;;14.00;96.00;;;;;;5001687;28;20030;-72
2021/12/31 02:29:06;;;;;;;9.40;7.20;;;13.90;96.00;;;;;;5026099;28;20102;-72
2021/12/31 02:31:32;;;;;;;8.35;6.82;;;13.90;96.00;;;;;;5031604;28;20503;-71
2021/12/31 02:33:58;;;;;;;9.63;6.38;;;13.90;96.00;;;;;;5028140;28;20567;-71
2021/12/31 02:36:24;;;;;;;8.82;6.65;;;13.80;95.60;;;;;;5030075;28;20037;-71
2021/12/31 02:38:50;;;;;;;8.98;6.07;;;13.80;95.80;;;;;;5030115;28;20976;-71
2021/12/31 02:41:16;;;;;;;10.60;6.30;;;13.80;95.70;;;;;;5012247;28;20107;-72
2021/12/31 02:43:41;;;;;;;9.55;6.65;;;13.70;95.80;;;;;;5028739;28;20044;-71
2021/12/31 02:46:07;;;;;;;10.90;6.63;;;13.80;96.10;;;;;;5019076;28;20547;-71
2021/12/31 02:48:33;;;;;;;7.65;6.10;;;13.70;96.00;;;;;;5009884;28;20044;-71
2021/12/31 02:51:00;;;;;;;7.63;6.22;;;13.60;96.10;;;;;;5012279;28;20033;-71
2021/12/31 02:53:35;;;;;;;13.10;7.55;;;13.70;96.10;;;;;;5028290;28;20087;-71
2021/12/31 02:56:05;;;;;;;13.05;7.57;;;13.70;96.30;;;;;;5030629;28;20022;-71
2021/12/31 02:58:33;;;;;;;8.85;6.15;;;13.70;96.30;;;;;;5010142;28;20045;-71
2021/12/31 03:00:59;;;;;;;9.65;6.10;;;13.70;96.10;;;;;;5029356;28;20542;-71
2021/12/31 03:03:25;;;;;;;11.77;6.55;;;13.80;96.00;;;;;;5018906;28;20025;-71
2021/12/31 03:05:55;;;;;;;7.97;6.25;;;13.70;96.00;;;;;;5029997;28;20245;-71
2021/12/31 03:08:24;;;;;;;8.95;5.90;;;13.70;95.90;;;;;;5030497;28;20025;-71
2021/12/31 03:10:53;;;;;;;9.23;6.03;;;13.70;95.90;;;;;;5012882;28;20488;-71
2021/12/31 03:13:19;;;;;;;7.40;5.60;;;13.60;95.90;;;;;;5008538;28;20726;-71
2021/12/31 03:15:45;;;;;;;7.15;5.50;;;13.70;95.90;;;;;;5029694;28;20029;-71
2021/12/31 03:18:11;;;;;;;8.75;5.22;;;13.60;95.90;;;;;;5030264;28;20794;-71
2021/12/31 03:20:43;;;;;;;7.95;5.57;;;13.60;95.90;;;;;;5029249;28;20033;-71
2021/12/31 03:23:10;;;;;;;6.72;5.78;;;13.60;96.00;;;;;;5010453;28;20580;-71
2021/12/31 03:25:37;;;;;;;6.43;4.82;;;13.50;96.00;;;;;;5010794;28;20036;-71
2021/12/31 03:28:03;;;;;;;5.65;4.80;;;13.50;96.10;;;;;;5029741;28;20048;-71
2021/12/31 03:30:29;;;;;;;8.35;5.35;;;13.50;96.10;;;;;;5028152;28;20373;-71
2021/12/31 03:32:55;;;;;;;7.15;5.00;;;13.40;96.10;;;;;;5014138;28;20440;-71
2021/12/31 03:35:21;;;;;;;6.53;4.75;;;13.40;96.10;;;;;;5008841;28;20034;-71
2021/12/31 03:37:46;;;;;;;9.07;4.57;;;13.30;96.00;;;;;;5012390;28;20025;-71
2021/12/31 03:40:12;;;;;;;5.88;3.97;;;13.20;96.30;;;;;;5016067;28;20464;-71
2021/12/31 03:42:39;;;;;;;5.18;4.63;;;13.20;96.30;;;;;;5028634;28;20039;-71
2021/12/31 03:45:06;;;;;;;5.40;4.13;;;13.10;96.30;;;;;;5026359;28;20140;-71
2021/12/31 03:47:31;;;;;;;6.63;5.18;;;13.10;96.30;;;;;;5029660;28;20033;-71
2021/12/31 03:49:57;;;;;;;6.63;4.43;;;13.10;96.40;;;;;;5027255;28;20025;-71
2021/12/31 03:52:23;;;;;;;5.75;4.90;;;13.10;96.50;;;;;;5027623;28;20041;-71
2021/12/31 03:54:48;;;;;;;6.88;5.13;;;13.10;96.40;;;;;;5009806;28;20060;-71
2021/12/31 03:57:14;;;;;;;6.75;5.10;;;13.20;96.50;;;;;;5028151;28;20025;-71
2021/12/31 03:59:40;;;;;;;8.68;5.15;;;13.20;96.40;;;;;;5027963;28;20064;-71
2021/12/31 04:02:06;;;;;;;8.23;5.22;;;13.30;96.30;;;;;;5009096;28;20048;-71
2021/12/31 04:04:31;;;;;;;5.38;4.50;;;13.30;96.30;;;;;;5027084;28;20025;-71
2021/12/31 04:06:57;;;;;;;8.68;4.50;;;13.30;96.10;;;;;;5011674;28;20044;-71
2021/12/31 04:09:23;;;;;;;6.80;4.53;;;13.30;96.10;;;;;;5026692;28;20112;-71
2021/12/31 04:11:48;;;;;;;5.60;4.80;;;13.40;96.40;;;;;;5011291;28;20119;-71
2021/12/31 04:14:14;;;;;;;6.50;5.32;;;13.30;96.30;;;;;;5025702;28;20025;-71
2021/12/31 04:16:40;;;;;;;5.50;4.88;;;13.40;96.20;;;;;;5030487;28;20108;-71
2021/12/31 04:19:05;;;;;;;4.80;4.30;;;13.40;96.10;;;;;;5013676;28;20084;-70
2021/12/31 04:21:33;;;;;;;6.88;4.75;;;13.40;96.10;;;;;;5026226;28;20522;-71
2021/12/31 04:24:09;;;;;;;5.18;4.00;;;13.40;96.00;;;;;;5012153;28;20029;-70
2021/12/31 04:26:34;;;;;;;5.80;4.03;;;13.50;96.00;;;;;;5029780;28;20045;-71
2021/12/31 04:29:00;;;;;;;5.95;3.90;;;13.40;96.00;;;;;;5029162;28;20036;-71
2021/12/31 04:31:26;;;;;;;4.85;3.58;;;13.50;96.00;;;;;;5026232;28;20094;-71
2021/12/31 04:33:52;;;;;;;3.92;3.53;;;13.50;95.70;;;;;;5027665;28;20029;-71
2021/12/31 04:36:18;;;;;;;8.13;3.45;;;13.50;95.50;;;;;;5025560;28;20033;-70
2021/12/31 04:38:43;;;;;;;5.68;3.15;;;13.50;95.60;;;;;;5030403;28;20112;-70
2021/12/31 04:41:09;;;;;;;7.05;4.22;;;13.50;95.50;;;;;;5026487;28;21011;-72
2021/12/31 04:43:35;;;;;;;8.13;5.32;;;13.50;95.40;;;;;;5017185;28;20707;-72
2021/12/31 04:46:01;;;;;;;3.40;3.08;;;13.60;95.20;;;;;;5030220;28;20124;-71
2021/12/31 04:48:26;;;;;;;3.25;2.95;;;13.60;95.10;;;;;;5028106;28;20132;-70
2021/12/31 04:50:52;;;;;;;3.60;3.05;;;13.60;94.70;;;;;;5027848;28;20079;-71
2021/12/31 04:53:18;;;;;;;4.25;3.00;;;13.70;94.80;;;;;;5008146;28;20132;-71
2021/12/31 04:55:44;;;;;;;3.88;3.00;;;13.70;94.80;;;;;;5022064;28;20056;-71
2021/12/31 04:58:10;;;;;;;3.47;2.70;;;13.60;94.70;;;;;;5029510;28;20017;-72
2021/12/31 05:00:36;;;;;;;2.70;2.50;;;13.70;94.70;;;;;;5028249;28;20032;-72
2021/12/31 05:03:09;;;;;;;2.95;2.60;;;13.70;94.60;;;;;;5012743;28;20819;-72
2021/12/31 05:05:36;;;;;;;3.95;2.60;;;13.70;94.40;;;;;;5026154;28;20047;-72
2021/12/31 05:08:02;;;;;;;5.25;2.20;;;13.80;94.20;;;;;;5029867;28;20025;-72
2021/12/31 05:10:32;;;;;;;3.00;2.70;;;13.80;94.20;;;;;;5026964;28;20064;-72
2021/12/31 05:13:02;;;;;;;6.75;3.00;;;13.80;94.10;;;;;;5009609;28;20416;-71
2021/12/31 05:15:33;;;;;;;4.03;2.05;;;13.80;93.90;;;;;;5012470;28;20030;-72
2021/12/31 05:17:59;;;;;;;3.63;2.72;;;13.80;93.90;;;;;;5028919;28;20022;-72
2021/12/31 05:20:25;;;;;;;3.53;2.70;;;13.80;93.90;;;;;;5005063;28;20036;-72
2021/12/31 05:22:52;;;;;;;2.83;2.22;;;13.80;93.80;;;;;;5028063;28;20112;-72
2021/12/31 05:25:19;;;;;;;2.78;2.13;;;13.80;93.80;;;;;;5006079;28;20060;-71
2021/12/31 05:27:44;;;;;;;2.45;2.20;;;13.80;93.80;;;;;;5009075;28;20063;-69
2021/12/31 05:30:11;;;;;;;5.80;2.50;;;13.80;93.80;;;;;;5011337;28;20041;-75
2021/12/31 05:32:37;;;;;;;2.53;2.33;;;13.80;93.60;;;;;;5031820;28;20021;-72
2021/12/31 05:35:03;;;;;;;2.60;2.35;;;13.80;93.50;;;;;;5015048;28;20040;-71
2021/12/31 05:37:29;;;;;;;4.65;2.50;;;13.90;93.60;;;;;;5032860;28;20769;-72
2021/12/31 05:39:54;;;;;;;2.42;2.17;;;13.90;93.60;;;;;;5032837;28;20037;-72
2021/12/31 05:42:20;;;;;;;2.97;2.30;;;13.90;93.50;;;;;;5012583;28;20033;-72
2021/12/31 05:44:48;;;;;;;2.88;2.50;;;13.90;93.60;;;;;;5031451;28;20397;-72
2021/12/31 05:47:14;;;;;;;2.13;1.92;;;13.90;93.40;;;;;;5031500;28;20037;-76
2021/12/31 05:49:40;;;;;;;5.57;2.72;;;13.90;93.40;;;;;;5016151;28;20587;-72
2021/12/31 05:52:07;;;;;;;5.13;2.58;;;13.80;93.40;;;;;;5011726;28;20059;-72
2021/12/31 05:54:32;;;;;;;7.50;3.83;;;13.90;93.50;;;;;;5029635;28;20055;-72
2021/12/31 05:56:58;;;;;;;5.53;3.42;;;13.90;93.50;;;;;;5029330;28;20524;-72
2021/12/31 05:59:24;;;;;;;3.30;3.00;;;13.90;93.50;;;;;;5013175;28;20083;-73
2021/12/31 06:01:50;;;;;;;4.15;2.97;;;13.90;93.40;;;;;;5012733;28;20488;-70
2021/12/31 06:04:16;;;;;;;5.60;3.25;;;13.90;93.30;;;;;;5028734;28;20538;-70
2021/12/31 06:06:43;;;;;;;3.40;2.63;;;13.90;93.40;;;;;;5012575;28;20033;-71
2021/12/31 06:09:11;;;;;;;3.47;2.88;;;13.90;93.40;;;;;;5029771;28;20037;-71
2021/12/31 06:11:37;;;;;;;3.72;2.65;;;13.90;93.30;;;;;;5011724;28;20033;-71
2021/12/31 06:14:05;;;;;;;5.60;2.88;;;13.80;93.40;;;;;;5014537;28;20057;-71
2021/12/31 06:16:41;;;;;;;4.85;2.45;;;13.80;93.50;;;;;;5012074;28;20098;-71
2021/12/31 06:19:10;;;;;;;3.50;2.60;;;13.80;93.50;;;;;;5021698;28;20509;-71
2021/12/31 06:21:38;;;;;;;3.20;2.58;;;13.80;93.60;;;;;;5028766;28;20033;-71
2021/12/31 06:24:04;;;;;;;2.88;2.58;;;13.80;93.90;;;;;;5028018;28;20040;-71
2021/12/31 06:26:30;;;;;;;3.13;2.83;;;13.80;93.70;;;;;;5029177;28;20052;-71
2021/12/31 06:28:56;;;;;;;3.78;2.47;;;13.80;93.70;;;;;;5008233;28;20060;-71
2021/12/31 06:31:22;;;;;;;2.92;2.40;;;13.80;93.60;;;;;;5028312;28;20590;-71
2021/12/31 06:33:48;;;;;;;3.00;2.70;;;13.80;93.60;;;;;;5025459;28;20138;-71
2021/12/31 06:36:15;;;;;;;2.70;2.50;;;13.70;93.60;;;;;;5023565;28;20033;-71
2021/12/31 06:38:41;;;;;;;3.63;2.45;;;13.70;93.70;;;;;;5028528;28;20072;-71
2021/12/31 06:41:07;;;;;;;3.80;2.60;;;13.70;93.60;;;;;;5025655;28;20053;-71
2021/12/31 06:43:32;;;;;;;4.78;2.80;;;13.80;93.60;;;;;;5024851;28;20052;-72
2021/12/31 06:45:58;;;;;;;7.30;3.08;;;13.80;93.50;;;;;;5014526;28;20071;-72
2021/12/31 06:48:24;;;;;;;4.40;2.92;;;13.80;93.60;;;;;;5022908;28;20033;-72
2021/12/31 06:50:49;;;;;;;3.15;2.30;;;13.70;93.60;;;;;;5030278;28;20108;-72
2021/12/31 06:53:15;;;;;;;2.70;2.50;;;13.70;93.70;;;;;;5012201;28;20044;-71
2021/12/31 06:55:41;;;;;;;3.05;2.58;;;13.70;93.70;;;;;;5023462;28;20033;-71
2021/12/31 06:58:06;;;;;;;2.65;2.45;;;13.70;93.70;;;;;;5025702;28;20447;-72
2021/12/31 07:00:32;;;;;;;2.67;2.47;;;13.70;93.60;;;;;;5031655;28;20128;-72
2021/12/31 07:03:09;;;;;;;3.67;2.38;;;13.80;93.50;;;;;;5027952;28;20349;-72
2021/12/31 07:05:35;;;;;;;4.00;2.20;;;13.80;93.50;;;;;;5007885;28;20029;-72
2021/12/31 07:08:01;;;;;;;5.30;3.17;;;13.80;93.50;;;;;;5014146;28;20045;-72
2021/12/31 07:10:30;;;;;;;7.43;5.25;;;13.80;93.30;;;;;;5024476;28;20049;-71
2021/12/31 07:13:01;;;;;;;9.52;5.47;;;13.70;93.20;;;;;;5012411;28;20029;-75
2021/12/31 07:15:28;;;;;;;5.43;4.93;;;13.80;93.40;;;;;;4988941;28;20041;-71
2021/12/31 07:17:54;;;;;;;5.28;4.15;;;13.80;93.40;;;;;;5008624;28;20504;-71
2021/12/31 07:20:20;;;;;;;3.83;3.08;;;13.80;93.20;;;;;;5027239;28;20071;-68
2021/12/31 07:22:47;;;;;;;8.68;5.22;;;13.80;93.30;;;;;;5024046;28;20112;-67
2021/12/31 07:25:12;;;;;;;4.85;3.50;;;13.80;93.20;;;;;;5018870;28;20037;-70
2021/12/31 07:27:38;;;;;;;6.30;3.30;;;13.80;93.20;;;;;;4980655;28;20049;-71
2021/12/31 07:30:05;;;;;;;7.90;4.10;;;13.80;93.30;;;;;;5029525;28;20065;-72
2021/12/31 07:32:38;;;;;;;3.53;2.60;;;13.80;93.20;;;;;;5021936;28;20049;-72
2021/12/31 07:35:05;;;;;;;8.60;6.13;;;13.80;93.20;;;;;;5022117;28;20039;-72
2021/12/31 07:37:31;;;;;;;8.90;5.28;;;13.80;93.00;;;;;;5025906;28;20033;-72
2021/12/31 07:40:03;;;;;;;19.98;10.05;;;13.80;93.30;;;;;;5027311;28;20091;-72
2021/12/31 07:42:28;;;;;;;6.85;4.53;;;13.70;93.30;;;;;;5025020;28;20026;-72
2021/12/31 07:44:54;;;;;;;7.22;4.72;;;13.80;93.30;;;;;;5026445;28;20056;-72
2021/12/31 07:47:20;;;;;;;4.30;3.60;;;13.80;93.00;;;;;;5022266;28;20040;-73
2021/12/31 07:49:45;;;;;;;12.50;8.82;;;13.90;93.10;;;;;;5012938;28;20033;-72
2021/12/31 07:52:11;;;;;;;13.73;7.15;;;13.90;93.00;;;;;;5026628;28;20064;-72
2021/12/31 07:54:37;;;;;;;12.82;7.70;;;13.90;93.00;;;;;;5004219;28;20473;-72
2021/12/31 07:57:03;;;;;;;11.73;7.20;;;13.90;92.80;;;;;;5027277;28;20036;-72
2021/12/31 07:59:28;;;;;;;12.07;6.63;;;14.00;92.80;;;;;;5026864;28;20100;-73
2021/12/31 08:01:54;;;;;;;9.77;5.95;;;14.00;92.70;;;;;;5024761;28;20033;-72
2021/12/31 08:04:20;;;;;;;8.02;4.25;;;14.00;92.60;;;;;;5023758;28;20037;-73
2021/12/31 08:06:45;;;;;;;11.77;6.53;;;14.10;92.70;;;;;;5017339;28;20324;-72
2021/12/31 08:09:11;;;;;;;10.73;6.95;;;14.10;92.50;;;;;;5024281;28;20063;-72
2021/12/31 08:11:37;;;;;;;7.28;4.15;;;14.10;92.30;;;;;;5029011;28;20040;-72
2021/12/31 08:14:04;;;;;;;9.45;5.40;;;14.10;92.40;;;;;;5005380;28;20036;-72
2021/12/31 08:16:30;;;;;;;7.10;3.80;;;14.10;92.30;;;;;;5024112;28;20126;-71
2021/12/31 08:18:56;;;;;;;8.35;3.92;;;14.10;92.10;;;;;;5010735;28;20033;-71
2021/12/31 08:21:22;;;;;;;7.90;3.70;;;14.10;92.10;;;;;;5025496;28;20083;-71
2021/12/31 08:23:48;;;;;;;8.65;4.53;;;14.20;92.20;;;;;;5006906;28;20707;-72
2021/12/31 08:26:14;;;;;;;25.45;12.35;;;14.10;92.10;;;;;;5028784;28;20621;-72
2021/12/31 08:28:40;;;;;;;12.25;5.78;;;14.10;92.20;;;;;;5004499;28;20344;-72
2021/12/31 08:31:06;;;;;;;3.95;2.70;;;14.10;92.40;;;;;;5028961;28;20072;-73
2021/12/31 08:33:32;;;;;;;17.67;7.95;;;14.00;92.30;;;;;;5010749;28;20033;-72
2021/12/31 08:35:58;;;;;;;21.33;9.10;;;14.10;92.30;;;;;;5010215;28;20032;-68
2021/12/31 08:38:24;;;;;;;14.80;6.57;;;14.10;92.30;;;;;;5026663;28;20044;-68
2021/12/31 08:40:50;;;;;;;8.75;3.97;;;14.20;92.30;;;;;;5002173;28;20128;-69
2021/12/31 08:43:17;;;;;;;22.25;10.63;;;14.20;92.30;;;;;;5003233;28;20550;-70
2021/12/31 08:45:43;;;;;;;12.10;4.03;;;14.20;92.20;;;;;;5007069;28;20743;-73
2021/12/31 08:48:09;;;;;;;12.20;6.65;;;14.20;92.40;;;;;;5028288;28;20037;-73
2021/12/31 08:50:36;;;;;;;8.18;4.25;;;14.30;91.90;;;;;;5008654;28;20033;-73
2021/12/31 08:53:03;;;;;;;9.77;5.78;;;14.30;92.00;;;;;;5008082;28;20028;-72
2021/12/31 08:55:28;;;;;;;9.05;4.28;;;14.30;92.00;;;;;;4998638;28;20059;-73
2021/12/31 08:57:55;;;;;;;9.10;5.30;;;14.30;92.00;;;;;;5021781;28;20108;-73
2021/12/31 09:00:21;;;;;;;4.60;2.33;;;14.30;91.90;;;;;;5025140;28;20036;-72
2021/12/31 09:02:50;;;;;;;5.43;3.47;;;14.40;91.90;;;;;;5028538;28;20020;-70
2021/12/31 09:05:16;;;;;;;3.65;2.72;;;14.30;91.70;;;;;;5021582;28;20151;-72
2021/12/31 09:07:42;;;;;;;10.55;4.97;;;14.30;91.90;;;;;;5011649;28;20039;-73
2021/12/31 09:10:09;;;;;;;9.13;4.38;;;14.40;91.70;;;;;;5019669;28;20025;-72
2021/12/31 09:12:39;;;;;;;4.68;3.10;;;14.40;91.60;;;;;;5005639;28;20044;-73
2021/12/31 09:15:06;;;;;;;4.32;3.13;;;14.40;91.50;;;;;;5002431;28;20025;-73
2021/12/31 09:17:31;;;;;;;9.70;4.78;;;14.40;91.50;;;;;;5024356;28;20443;-73
2021/12/31 09:19:57;;;;;;;4.63;3.60;;;14.50;91.50;;;;;;5026634;28;20022;-73
2021/12/31 09:22:25;;;;;;;5.10;3.13;;;14.50;91.60;;;;;;5026930;28;20038;-73
2021/12/31 09:24:50;;;;;;;3.97;1.70;;;14.50;91.30;;;;;;5005556;28;20031;-73
2021/12/31 09:27:16;;;;;;;3.88;1.95;;;14.60;91.10;;;;;;5004731;28;20033;-73
2021/12/31 09:29:42;;;;;;;5.95;3.42;;;14.50;91.10;;;;;;5024796;28;20045;-73
2021/12/31 09:32:08;;;;;;;3.97;1.10;;;14.50;91.20;;;;;;5020987;28;20175;-73
2021/12/31 09:34:34;;;;;;;3.70;2.47;;;14.50;91.00;;;;;;5023251;28;20036;-73
2021/12/31 09:37:00;;;;;;;5.28;3.58;;;14.40;91.20;;;;;;4996527;28;20032;-74
2021/12/31 09:39:26;;;;;;;5.45;3.30;;;14.40;91.40;;;;;;5025786;28;20034;-72
2021/12/31 09:41:51;;;;;;;4.50;2.28;;;14.40;91.30;;;;;;5011675;28;20044;-74
2021/12/31 09:44:20;;;;;;;3.53;1.70;;;14.50;91.10;;;;;;5009210;28;20033;-74
2021/12/31 09:46:46;;;;;;;3.30;2.15;;;14.40;90.90;;;;;;4994564;28;20033;-74
2021/12/31 09:49:12;;;;;;;1.55;1.27;;;14.40;91.10;;;;;;5006923;28;20034;-73
2021/12/31 09:51:42;;;;;;;6.72;2.85;;;14.50;91.00;;;;;;5024737;28;20041;-73
2021/12/31 09:54:08;;;;;;;2.90;1.90;;;14.50;90.90;;;;;;5003135;28;20032;-73
2021/12/31 09:56:39;;;;;;;5.00;1.30;;;14.50;90.90;;;;;;5028083;28;20025;-73
2021/12/31 09:59:05;;;;;;;4.65;1.58;;;14.50;90.90;;;;;;5007517;28;20025;-73
2021/12/31 10:01:31;;;;;;;2.90;1.52;;;14.50;91.10;;;;;;5022736;28;20432;-73
2021/12/31 10:04:00;;;;;;;4.05;1.80;;;14.50;90.90;;;;;;5006410;28;20043;-73
2021/12/31 10:06:26;;;;;;;3.55;1.75;;;14.50;91.00;;;;;;5025293;28;20115;-73
2021/12/31 10:08:53;;;;;;;2.08;1.17;;;14.50;91.00;;;;;;5022765;28;20044;-73
2021/12/31 10:11:21;;;;;;;3.85;1.50;;;14.50;90.90;;;;;;5025994;28;20037;-73
2021/12/31 10:14:05;;;;;;;3.10;1.30;;;14.40;91.20;;;;;;5011277;28;20032;-73
2021/12/31 10:16:33;;;;;;;3.25;1.50;;;14.40;91.10;;;;;;5022486;28;20389;-70
2021/12/31 10:19:15;;;;;;;4.43;1.20;;;14.40;91.00;;;;;;5013602;28;20950;-70
2021/12/31 10:21:42;;;;;;;2.40;1.23;;;14.40;91.10;;;;;;5003523;28;20041;-71
2021/12/31 10:24:32;;;;;;;4.30;1.80;;;14.40;91.00;;;;;;4990675;28;20095;-71
2021/12/31 10:27:01;;;;;;;3.63;1.45;;;14.50;90.80;;;;;;5018462;28;20071;-70
2021/12/31 10:29:27;;;;;;;3.03;1.30;;;14.40;90.70;;;;;;5009313;28;20049;-74
2021/12/31 10:31:54;;;;;;;4.57;1.20;;;14.40;90.70;;;;;;5008716;28;20927;-74
2021/12/31 10:34:27;;;;;;;3.67;2.30;;;14.30;91.00;;;;;;5009379;28;20044;-73
2021/12/31 10:36:53;;;;;;;1.73;1.10;;;14.20;91.10;;;;;;5024821;28;20088;-73
2021/12/31 10:39:22;;;;;;;3.83;1.30;;;14.30;91.00;;;;;;5026399;28;20210;-73
2021/12/31 10:42:09;;;;;;;2.75;1.30;;;14.20;90.90;;;;;;4993391;28;20149;-73
2021/12/31 10:44:40;;;;;;;6.65;1.55;;;14.30;90.90;;;;;;4989825;28;20111;-73
2021/12/31 10:47:09;;;;;;;2.75;1.30;;;14.30;90.80;;;;;;5027034;28;20033;-73
2021/12/31 10:50:04;;;;;;;1.58;0.93;;;14.30;90.70;;;;;;5021612;28;20549;-73
2021/12/31 10:52:35;;;;;;;1.02;0.90;;;14.40;90.60;;;;;;5006405;28;20033;-73
2021/12/31 10:57:43;;;;;;;2.78;0.95;;;14.50;90.20;;;;;;5022092;28;20029;-73
2021/12/31 11:00:10;;;;;;;4.78;1.10;;;14.50;90.20;;;;;;5007946;28;20501;-73
2021/12/31 11:02:37;;;;;;;2.58;1.20;;;14.50;90.20;;;;;;5002186;28;20128;-73
2021/12/31 11:05:04;;;;;;;1.50;1.02;;;14.50;90.30;;;;;;4989368;28;20378;-73
2021/12/31 11:07:31;;;;;;;1.98;1.20;;;14.50;90.30;;;;;;4993157;28;20029;-73
2021/12/31 11:09:58;;;;;;;2.28;1.13;;;14.50;90.40;;;;;;5005308;28;20339;-73
2021/12/31 11:12:25;;;;;;;2.95;1.40;;;14.40;90.30;;;;;;5020779;28;20045;-73
2021/12/31 11:14:51;;;;;;;3.85;1.27;;;14.40;90.40;;;;;;5023485;28;20080;-73
2021/12/31 11:17:17;;;;;;;3.97;1.10;;;14.50;90.50;;;;;;5006362;28;20041;-73
2021/12/31 11:19:45;;;;;;;1.35;0.90;;;14.50;90.40;;;;;;5026656;28;20083;-73
2021/12/31 11:22:14;;;;;;;3.08;1.30;;;14.50;90.20;;;;;;5024139;28;20087;-73
2021/12/31 11:24:40;;;;;;;4.05;0.98;;;14.50;90.40;;;;;;5030185;28;20040;-73
2021/12/31 11:27:27;;;;;;;2.03;1.52;;;14.50;90.30;;;;;;5026278;28;20477;-73
2021/12/31 11:29:54;;;;;;;3.20;0.98;;;14.40;90.70;;;;;;5010213;28;20028;-72
2021/12/31 11:32:42;;;;;;;2.83;1.30;;;14.40;90.50;;;;;;5021716;28;20044;-73
2021/12/31 11:35:39;;;;;;;2.92;1.10;;;14.40;90.70;;;;;;5028116;28;20439;-73
2021/12/31 11:38:13;;;;;;;4.75;2.22;;;14.40;90.30;;;;;;5027307;28;20061;-71
2021/12/31 11:40:50;;;;;;;6.22;3.20;;;14.50;90.50;;;;;;5024986;28;20036;-69
2021/12/31 11:43:25;;;;;;;3.83;1.45;;;14.50;90.50;;;;;;5025683;28;20045;-70
2021/12/31 11:46:09;;;;;;;3.92;1.70;;;14.60;90.10;;;;;;5025140;28;20037;-73
2021/12/31 11:48:44;;;;;;;4.90;1.88;;;14.70;90.00;;;;;;5022047;28;20057;-71
2021/12/31 11:51:11;;;;;;;6.47;1.83;;;14.70;90.00;;;;;;5022783;28;20675;-71
2021/12/31 11:54:00;;;;;;;2.22;1.60;;;14.70;89.80;;;;;;5032609;28;20029;-71
2021/12/31 11:56:43;;;;;;;2.22;1.30;;;14.80;89.70;;;;;;5008119;28;20140;-72
2021/12/31 11:59:12;;;;;;;1.73;1.05;;;14.80;89.70;;;;;;5024450;28;20133;-70
2021/12/31 12:01:37;;;;;;;2.85;1.10;;;14.80;89.30;;;;;;5001466;28;20488;-70
2021/12/31 12:04:29;;;;;;;1.27;0.90;;;14.80;89.30;;;;;;5006718;28;20116;-72
2021/12/31 12:07:00;;;;;;;2.17;0.88;;;14.80;89.00;;;;;;5024163;28;20445;-71
2021/12/31 12:09:37;;;;;;;0.95;0.93;;;14.90;88.80;;;;;;5025423;28;20037;-71
2021/12/31 12:12:21;;;;;;;12.77;5.65;;;14.80;88.90;;;;;;5018713;28;20057;-71
2021/12/31 13:01:54;;;;;;;2.25;1.00;;;15.00;87.70;;;;;;5014173;28;20151;-92
2021/12/31 13:05:16;;;;;;;1.77;1.23;;;15.00;87.60;;;;;;4976959;28;20036;-90
2021/12/31 13:07:56;;;;;;;3.15;1.10;;;15.00;87.60;;;;;;4993101;28;20037;-90
2021/12/31 13:11:16;;;;;;;2.55;1.15;;;15.00;87.90;;;;;;4985875;28;20057;-90
